東京国際空港の過去48時間の天気

東京国際空港 (Tokyo/Intl)

現在時刻: 2/19 04:33 JST (2/18 19:33 UTC) 以下の時間は現地時間です。

過去48時間のMETAR気象情報
時間 風向 風速(m/s) 視程 気温(℃) 湿度(%) 気圧(hPa) 天気現象
19 04:00 北北西 2 10km以上 8 81 1025
19 03:30 西北西 2 10km以上 8 76 1025
19 03:00 西北西 2 10km以上 8 76 1025
19 02:30 北西 2 10km以上 8 76 1025
19 02:00 西北西 2 10km以上 8 76 1026
19 01:30 西北西 2 10km以上 9 76 1026
19 01:00 不定 1 10km以上 9 81 1026
19 00:30 2 10km以上 9 81 1026
19 00:00 2 10km以上 9 87 1026
18 23:30 1 10km以上 9 81 1026
18 23:00 不定 1 10km以上 10 76 1026
18 22:30 不定 1 10km以上 9 87 1026
18 22:00 不定 1 10km以上 9 87 1026
18 21:30 東南東 2 10km以上 9 87 1026
18 21:00 南東 3 10km以上 9 76 1026
18 20:30 南南東 3 10km以上 9 76 1025
18 20:00 南東 3 10km以上 9 87 1025
18 19:30 南東 4 10km以上 10 71 1025
18 19:00 5 10km以上 11 62 1025
18 18:30 4 10km以上 12 58 1024
18 18:00 5 10km以上 12 58 1024
18 17:30 6 10km以上 12 54 1024
18 17:00 6 10km以上 12 54 1023
18 16:30 5 10km以上 13 51 1023
18 16:00 5 10km以上 13 47 1023
18 15:30 東南東 5 10km以上 11 58 1023
18 15:00 5 10km以上 11 62 1022
18 14:30 東南東 5 10km以上 11 58 1023
18 14:00 南東 5 10km以上 12 47 1023
18 13:30 南東 5 10km以上 11 47 1023
18 13:00 南南東 6 10km以上 12 35 1023
18 12:30 不定 2 10km以上 12 44 1023
18 12:00 西北西 5 10km以上 13 33 1023
18 11:30 西北西 4 10km以上 12 32 1023
18 11:00 北北西 3 10km以上 13 33 1024
18 10:30 北西 3 10km以上 11 30 1024
18 07:30 西 4 10km以上 4 52 1023
18 07:00 西北西 4 10km以上 5 38 1022
18 06:30 北北西 5 10km以上 5 42 1021
18 06:00 北北西 5 10km以上 5 42 1021
18 05:30 北北西 5 10km以上 5 38 1021
18 05:00 北北西 6 10km以上 5 42 1021
18 04:30 北北西 6 10km以上 6 39 1021
18 04:00 北北西 6 10km以上 5 38 1020
18 03:30 北北西 6 10km以上 6 36 1020
18 03:00 北北西 8 10km以上 6 36 1020
18 02:30 北北西 7 10km以上 5 38 1020
18 02:00 北北西 7 10km以上 6 36 1020
18 01:30 北北西 6 10km以上 6 36 1019
18 01:00 北北西 6 10km以上 6 39 1019
18 00:30 北北西 7 10km以上 6 39 1019
18 00:00 北北西 7 10km以上 6 39 1019
17 23:30 北北西 6 10km以上 6 39 1019
17 23:00 北北西 6 10km以上 5 42 1019
17 22:30 北北西 8 10km以上 6 42 1019
17 22:00 北北西 6 10km以上 6 45 1019
17 21:30 北北西 8 10km以上 6 39 1019
17 21:00 北北西 8 10km以上 7 39 1018
17 20:30 北北西 8 10km以上 7 34 1018
17 20:00 北北西 8 10km以上 7 34 1017
17 19:30 北北西 7 10km以上 7 31 1017
17 19:00 北北西 6 10km以上 8 34 1017
17 18:30 北北西 6 10km以上 8 31 1016
17 18:00 北北西 6 10km以上 8 27 1016
17 17:30 北北西 6 10km以上 8 27 1016
17 17:00 4 10km以上 10 34 1015
17 16:30 4 10km以上 10 32 1015
17 16:00 5 10km以上 10 32 1015
17 15:30 5 10km以上 10 32 1014
17 15:00 5 10km以上 11 30 1014
17 14:30 5 10km以上 11 22 1014
17 14:00 5 10km以上 11 32 1014
17 13:30 5 10km以上 10 37 1013
17 13:00 4 10km以上 11 32 1014
17 12:30 5 10km以上 10 27 1014
17 12:00 6 10km以上 9 34 1014
17 11:30 6 10km以上 8 31 1015
17 11:00 6 10km以上 8 34 1015
17 10:30 北北西 7 10km以上 7 34 1015
17 10:00 北北西 8 10km以上 7 39 1015
17 09:30 北北西 8 10km以上 6 39 1015
17 09:00 北北西 9 10km以上 6 33 1015
17 08:31 北北西 8 10km以上 6 33 1015
17 08:00 北北西 8 10km以上 5 36 1015
17 07:30 北北西 9 10km以上 5 38 1014
17 07:00 北北西 9 10km以上 5 36 1014
17 06:30 北北西 10 10km以上 5 36 1013
17 06:00 北北西 9 10km以上 5 33 1013
17 05:50 北北西 10 10km以上 5 36 1013
17 05:30 北北西 9 10km以上 5 36 1013
17 05:00 北北西 9 10km以上 5 36 1012
RJTT 181900Z 34004KT 9999 FEW020 BKN140 08/05 Q1025 NOSIG RMK 1CU020 7AC140 A3028
RJTT 181830Z 30004KT 9999 FEW020 BKN150 08/04 Q1025 NOSIG RMK 1CU020 7AC150 A3029
RJTT 181800Z 30003KT 9999 FEW020 BKN160 08/04 Q1025 NOSIG RMK 1CU020 7AC160 A3029
RJTT 181730Z 32003KT 300V360 9999 FEW020 BKN170 08/04 Q1025 NOSIG RMK 1CU020 7AC170 A3029
RJTT 181700Z 30004KT 9999 FEW020 BKN170 08/04 Q1026 NOSIG RMK 1CU020 5AC170 A3030
RJTT 181630Z 29003KT 9999 FEW020 SCT170 09/05 Q1026 NOSIG RMK 1CU020 3AC170 A3030
RJTT 181600Z VRB01KT 9999 FEW020 BKN170 09/06 Q1026 BECMG 34005KT RMK 1CU020 5AC170 A3031
RJTT 181530Z 36003KT 320V030 9999 FEW020 BKN180 09/06 Q1026 NOSIG RMK 1CU020 6AC180 A3031
RJTT 181500Z 01003KT 9999 FEW020 BKN180 09/07 Q1026 NOSIG RMK 1CU020 7AC180 A3031
RJTT 181430Z 01002KT 9999 FEW030 09/06 Q1026 NOSIG RMK 1CU030 A3031
RJTT 181400Z VRB02KT 9999 FEW030 10/06 Q1026 BECMG 34005KT RMK 1CU030 A3031
RJTT 181330Z VRB02KT 9999 FEW030 09/07 Q1026 BECMG 34005KT
RJTT 181300Z VRB02KT 9999 FEW035 BKN/// 09/07 Q1026 NOSIG RMK 1CU035 A3031
RJTT 181230Z 11003KT 9999 FEW035 BKN/// 09/07 Q1026 NOSIG
RJTT 181200Z 14005KT 9999 FEW035 09/05 Q1026 NOSIG RMK 1CU035 A3030
RJTT 181130Z 15006KT 9999 FEW035 09/05 Q1025 NOSIG RMK 2CU035 A3028
RJTT 181100Z 13005KT 9999 FEW030 SCT/// 09/07 Q1025 NOSIG
RJTT 181030Z 14008KT 9999 FEW030 BKN/// 10/05 Q1025 NOSIG
RJTT 181000Z 17009KT 9999 FEW030 BKN/// 11/04 Q1025 NOSIG RMK 1CU030 A3027
RJTT 180930Z 19007KT 160V230 9999 FEW030 BKN/// 12/04 Q1024 NOSIG
RJTT 180900Z 19009KT 9999 FEW030 BKN/// 12/04 Q1024 NOSIG RMK 1CU030 A3025
RJTT 180830Z 19011KT 9999 FEW030 12/03 Q1024 NOSIG RMK 1CU030 A3024
RJTT 180800Z 18012KT 9999 FEW040 12/03 Q1023 NOSIG RMK 1SC040 A3023
RJTT 180730Z 17010KT 9999 FEW040 13/03 Q1023 NOSIG RMK 1CU040 A3023
RJTT 180700Z 17010KT 9999 FEW040 13/02 Q1023 NOSIG RMK 1CU040 A3022
RJTT 180630Z 11009KT 9999 FEW040 11/03 Q1023 BECMG 17010KT
RJTT 180600Z 10010KT 9999 FEW040 11/04 Q1022 BECMG 18010KT RMK 1CU040 A3021
RJTT 180530Z 11010KT 9999 FEW040 11/03 Q1023 BECMG 18010KT
RJTT 180500Z 13010KT 9999 FEW040 12/01 Q1023 NOSIG RMK 1CU040 A3021
RJTT 180430Z 13010KT 9999 FEW040 11/00 Q1023 NOSIG RMK 1CU040 A3022
RJTT 180400Z 15012KT 9999 FEW040 12/M03 Q1023 NOSIG RMK 1CU040 A3022
RJTT 180330Z VRB04KT 9999 FEW040 12/M00 Q1023 BECMG 20010KT
RJTT 180300Z 29009KT 240V340 9999 FEW040 13/M03 Q1023 BECMG 20010KT RMK 1CU040 A3023
RJTT 180230Z 30007KT 260V040 9999 FEW040 SCT/// 12/M04 Q1023 BECMG 12005KT
RJTT 180200Z 33005KT 270V060 9999 FEW040 SCT/// 13/M03 Q1024 BECMG 08005KT RMK 1CU040 A3024
RJTT 180130Z 31006KT 260V340 9999 FEW040 11/M06 Q1024 NOSIG RMK 1CU040 A3025
RJTT 172230Z 27007KT 9999 FEW050 04/M05 Q1023 NOSIG RMK 1SC050 A3022
RJTT 172200Z 30007KT 260V330 9999 FEW050 05/M08 Q1022 NOSIG RMK 1SC050 A3020
RJTT 172130Z 33009KT 9999 FEW030 05/M07 Q1021 NOSIG RMK 1CU030 A3018
RJTT 172100Z 33009KT 9999 FEW045 05/M07 Q1021 NOSIG RMK 1SC045 A3017
RJTT 172030Z 33010KT 9999 FEW050 05/M08 Q1021 NOSIG RMK 1SC050 A3017
RJTT 172000Z 33011KT 9999 FEW050 05/M07 Q1021 NOSIG RMK 1SC050 A3016
RJTT 171930Z 33011KT CAVOK 06/M07 Q1021 NOSIG RMK A3016
RJTT 171900Z 33012KT CAVOK 05/M08 Q1020 NOSIG RMK A3015
RJTT 171830Z 33012KT CAVOK 06/M08 Q1020 NOSIG RMK A3014
RJTT 171800Z 33015KT CAVOK 06/M08 Q1020 NOSIG RMK A3013
RJTT 171730Z 33013KT CAVOK 05/M08 Q1020 NOSIG RMK A3013
RJTT 171700Z 33013KT CAVOK 06/M08 Q1020 NOSIG RMK A3012
RJTT 171630Z 33012KT CAVOK 06/M08 Q1019 NOSIG RMK A3011
RJTT 171600Z 33012KT CAVOK 06/M07 Q1019 NOSIG RMK A3011
RJTT 171530Z 34014KT CAVOK 06/M07 Q1019 NOSIG RMK A3011
RJTT 171500Z 34014KT CAVOK 06/M07 Q1019 NOSIG RMK A3011
RJTT 171430Z 34012KT CAVOK 06/M07 Q1019 NOSIG RMK A3011
RJTT 171400Z 33011KT CAVOK 05/M07 Q1019 NOSIG RMK A3011
RJTT 171330Z 34015KT CAVOK 06/M06 Q1019 NOSIG RMK A3010
RJTT 171300Z 34012KT CAVOK 06/M05 Q1019 NOSIG RMK A3010
RJTT 171230Z 33015KT CAVOK 06/M07 Q1019 NOSIG RMK A3009
RJTT 171200Z 34016KT CAVOK 07/M06 Q1018 NOSIG RMK A3008
RJTT 171130Z 33015KT CAVOK 07/M08 Q1018 NOSIG RMK A3007
RJTT 171100Z 33015KT CAVOK 07/M08 Q1017 NOSIG RMK A3005
RJTT 171030Z 33014KT CAVOK 07/M09 Q1017 NOSIG RMK A3005
RJTT 171000Z 34012KT CAVOK 08/M07 Q1017 NOSIG RMK A3003
RJTT 170930Z 33012KT 9999 FEW050 08/M08 Q1016 NOSIG RMK 1SC050 A3003
RJTT 170900Z 33012KT 9999 FEW050 08/M10 Q1016 NOSIG RMK 1SC050 A3002
RJTT 170830Z 33011KT 9999 FEW050 08/M10 Q1016 NOSIG RMK 1SC050 A3001
RJTT 170800Z 35007KT 9999 FEW040 10/M05 Q1015 NOSIG RMK 1CU040 A2999
RJTT 170730Z 01007KT CAVOK 10/M06 Q1015 NOSIG RMK A2999
RJTT 170700Z 36010KT CAVOK 10/M06 Q1015 NOSIG RMK A2997
RJTT 170630Z 01010KT 330V060 CAVOK 10/M06 Q1014 NOSIG RMK A2997
RJTT 170600Z 35010KT CAVOK 11/M06 Q1014 NOSIG RMK A2996
RJTT 170530Z 35009KT 9999 FEW060 11/M10 Q1014 NOSIG RMK 2SC060 A2995
RJTT 170500Z 01010KT 9999 FEW060 11/M05 Q1014 NOSIG RMK 2SC060 A2994
RJTT 170430Z 01010KT 9999 FEW060 10/M04 Q1013 NOSIG RMK 2SC060 A2994
RJTT 170400Z 36008KT 9999 FEW040 SCT060 11/M05 Q1014 NOSIG RMK 1CU040 3SC060 A2994
RJTT 170330Z 36010KT 9999 FEW040 SCT060 10/M08 Q1014 NOSIG RMK 1CU040 4SC060 A2995
RJTT 170300Z 01011KT 9999 FEW040 BKN060 09/M06 Q1014 NOSIG RMK 1CU040 5SC060 A2996
RJTT 170230Z 35012KT 9999 FEW040 SCT050 BKN060 08/M08 Q1015 NOSIG RMK 1SC040 4SC050 6SC060 A2997
RJTT 170200Z 35012KT 9999 FEW040 SCT050 BKN060 08/M07 Q1015 NOSIG RMK 1SC040 4SC050 7SC060 A2998
RJTT 170130Z 34013KT 9999 BKN050 07/M08 Q1015 NOSIG RMK 7SC050 A2998
RJTT 170100Z 34015KT 9999 BKN050 07/M06 Q1015 NOSIG RMK 7SC050 A2999
RJTT 170030Z 34016KT 9999 BKN050 06/M07 Q1015 NOSIG RMK 7SC050 A2998
RJTT 170000Z 34018KT 9999 FEW030 BKN050 06/M09 Q1015 NOSIG RMK 1CU030 7SC050 A2998
RJTT 162331Z 34015G25KT 9999 FEW030 BKN050 06/M09 Q1015 RMK 1CU030 7SC050 A2998
RJTT 162300Z 34016KT 9999 FEW030 BKN060 05/M09 Q1015 NOSIG RMK 1CU030 6SC060 A2997 MOD TURB OBS AT 2244Z OVER UTIBO BTN 12000FT AND 8000FT IN DES BY B738
RJTT 162230Z 34018KT 9999 FEW030 BKN050 05/M08 Q1014 NOSIG RMK 1CU030 7SC050 A2996
RJTT 162200Z 34018G28KT 9999 FEW030 BKN050 05/M09 Q1014 NOSIG RMK 1CU030 7SC050 A2995
RJTT 162130Z 33019KT 9999 FEW030 BKN050 05/M09 Q1013 TEMPO 34020G30KT
RJTT 162100Z 33018G28KT 9999 FEW030 BKN050 05/M10 Q1013 NOSIG RMK 1CU030 7SC050 A2993
RJTT 162050Z 33020G30KT 9999 FEW030 BKN050 05/M09 Q1013 RMK 1CU030 7SC050 A2992 MOD TURB OBS AT 2038Z 15NM SW UTIBO 12000FT IN DES BY B773
RJTT 162030Z 33018KT 9999 FEW030 BKN050 05/M09 Q1013 TEMPO 34022G32KT
RJTT 162000Z 33018G31KT 9999 FEW030 BKN060 05/M09 Q1012 NOSIG RMK 1CU030 7SC060 A2991